sensor_id;sensor_type;location;lat;lon;timestamp;P1;durP1;ratioP1;P2;durP2;ratioP2
27127;SDS011;14660;49.008;8.390;2022-11-03T00:02:12;10.27;;;5.22;;
27127;SDS011;14660;49.008;8.390;2022-11-03T00:04:39;12.25;;;5.10;;
27127;SDS011;14660;49.008;8.390;2022-11-03T00:07:05;8.77;;;5.50;;
27127;SDS011;14660;49.008;8.390;2022-11-03T00:09:34;11.75;;;5.60;;
27127;SDS011;14660;49.008;8.390;2022-11-03T00:12:02;11.27;;;5.72;;
27127;SDS011;14660;49.008;8.390;2022-11-03T00:14:30;10.40;;;5.32;;
27127;SDS011;14660;49.008;8.390;2022-11-03T00:16:59;9.43;;;5.40;;
27127;SDS011;14660;49.008;8.390;2022-11-03T00:19:27;11.63;;;5.68;;
27127;SDS011;14660;49.008;8.390;2022-11-03T00:21:54;9.07;;;5.47;;
27127;SDS011;14660;49.008;8.390;2022-11-03T00:24:24;12.30;;;6.40;;
27127;SDS011;14660;49.008;8.390;2022-11-03T00:26:51;11.20;;;5.43;;
27127;SDS011;14660;49.008;8.390;2022-11-03T00:29:18;14.23;;;5.97;;
27127;SDS011;14660;49.008;8.390;2022-11-03T00:31:45;11.23;;;5.75;;
27127;SDS011;14660;49.008;8.390;2022-11-03T00:34:14;10.18;;;5.55;;
27127;SDS011;14660;49.008;8.390;2022-11-03T00:36:43;10.45;;;5.60;;
27127;SDS011;14660;49.008;8.390;2022-11-03T00:39:09;10.00;;;5.78;;
27127;SDS011;14660;49.008;8.390;2022-11-03T00:41:38;9.13;;;4.75;;
27127;SDS011;14660;49.008;8.390;2022-11-03T00:44:07;8.52;;;5.25;;
27127;SDS011;14660;49.008;8.390;2022-11-03T00:46:36;13.07;;;4.70;;
27127;SDS011;14660;49.008;8.390;2022-11-03T00:49:04;7.10;;;4.25;;
27127;SDS011;14660;49.008;8.390;2022-11-03T00:51:31;9.90;;;4.18;;
27127;SDS011;14660;49.008;8.390;2022-11-03T00:54:01;6.25;;;3.78;;
27127;SDS011;14660;49.008;8.390;2022-11-03T00:59:15;8.85;;;4.45;;
27127;SDS011;14660;49.008;8.390;2022-11-03T01:01:43;7.32;;;3.60;;
27127;SDS011;14660;49.008;8.390;2022-11-03T01:04:11;8.70;;;3.95;;
27127;SDS011;14660;49.008;8.390;2022-11-03T01:07:00;10.48;;;4.50;;
27127;SDS011;14660;49.008;8.390;2022-11-03T01:15:00;12.15;;;4.25;;
27127;SDS011;14660;49.008;8.390;2022-11-03T01:17:27;6.88;;;4.53;;
27127;SDS011;14660;49.008;8.390;2022-11-03T01:19:55;8.75;;;4.45;;
27127;SDS011;14660;49.008;8.390;2022-11-03T01:22:23;11.90;;;4.50;;
27127;SDS011;14660;49.008;8.390;2022-11-03T01:24:51;9.32;;;4.30;;
27127;SDS011;14660;49.008;8.390;2022-11-03T01:27:19;7.85;;;4.10;;
27127;SDS011;14660;49.008;8.390;2022-11-03T01:29:49;9.13;;;4.25;;
27127;SDS011;14660;49.008;8.390;2022-11-03T01:32:15;8.18;;;4.50;;
27127;SDS011;14660;49.008;8.390;2022-11-03T01:34:42;7.75;;;3.92;;
27127;SDS011;14660;49.008;8.390;2022-11-03T01:37:10;14.80;;;4.88;;
27127;SDS011;14660;49.008;8.390;2022-11-03T01:39:36;10.02;;;3.88;;
27127;SDS011;14660;49.008;8.390;2022-11-03T01:42:04;10.68;;;4.55;;
27127;SDS011;14660;49.008;8.390;2022-11-03T01:44:38;8.98;;;4.53;;
27127;SDS011;14660;49.008;8.390;2022-11-03T01:47:34;11.13;;;4.75;;
27127;SDS011;14660;49.008;8.390;2022-11-03T01:50:10;9.95;;;4.55;;
27127;SDS011;14660;49.008;8.390;2022-11-03T01:55:31;12.52;;;5.13;;
27127;SDS011;14660;49.008;8.390;2022-11-03T02:00:53;13.95;;;4.75;;
27127;SDS011;14660;49.008;8.390;2022-11-03T02:03:24;15.10;;;5.30;;
27127;SDS011;14660;49.008;8.390;2022-11-03T02:05:53;10.70;;;3.90;;
27127;SDS011;14660;49.008;8.390;2022-11-03T02:08:33;7.38;;;3.60;;
27127;SDS011;14660;49.008;8.390;2022-11-03T02:11:15;9.00;;;4.63;;
27127;SDS011;14660;49.008;8.390;2022-11-03T02:14:01;8.85;;;3.40;;
27127;SDS011;14660;49.008;8.390;2022-11-03T02:16:36;7.32;;;3.90;;
27127;SDS011;14660;49.008;8.390;2022-11-03T02:19:04;8.70;;;3.83;;
27127;SDS011;14660;49.008;8.390;2022-11-03T02:21:44;7.65;;;3.63;;
27127;SDS011;14660;49.008;8.390;2022-11-03T02:27:08;4.78;;;3.78;;
27127;SDS011;14660;49.008;8.390;2022-11-03T02:29:35;7.85;;;3.03;;
27127;SDS011;14660;49.008;8.390;2022-11-03T02:32:20;5.07;;;3.13;;
27127;SDS011;14660;49.008;8.390;2022-11-03T02:38:10;8.23;;;3.58;;
27127;SDS011;14660;49.008;8.390;2022-11-03T02:40:41;4.40;;;3.03;;
27127;SDS011;14660;49.008;8.390;2022-11-03T02:43:12;6.25;;;2.85;;
27127;SDS011;14660;49.008;8.390;2022-11-03T02:45:41;8.10;;;3.50;;
27127;SDS011;14660;49.008;8.390;2022-11-03T02:48:11;5.35;;;3.13;;
27127;SDS011;14660;49.008;8.390;2022-11-03T02:50:41;11.95;;;3.25;;
27127;SDS011;14660;49.008;8.390;2022-11-03T02:53:18;7.38;;;2.85;;
27127;SDS011;14660;49.008;8.390;2022-11-03T03:07:18;4.25;;;2.72;;
27127;SDS011;14660;49.008;8.390;2022-11-03T03:09:53;5.47;;;2.53;;
27127;SDS011;14660;49.008;8.390;2022-11-03T03:12:47;5.25;;;3.47;;
27127;SDS011;14660;49.008;8.390;2022-11-03T03:15:17;10.32;;;3.58;;
27127;SDS011;14660;49.008;8.390;2022-11-03T03:21:20;5.80;;;2.88;;
27127;SDS011;14660;49.008;8.390;2022-11-03T03:23:52;8.50;;;2.78;;
27127;SDS011;14660;49.008;8.390;2022-11-03T03:26:27;4.88;;;2.60;;
27127;SDS011;14660;49.008;8.390;2022-11-03T03:29:02;4.63;;;2.38;;
27127;SDS011;14660;49.008;8.390;2022-11-03T03:31:41;6.80;;;3.05;;
27127;SDS011;14660;49.008;8.390;2022-11-03T03:34:13;5.72;;;3.65;;
27127;SDS011;14660;49.008;8.390;2022-11-03T03:36:40;3.90;;;3.33;;
27127;SDS011;14660;49.008;8.390;2022-11-03T03:39:10;7.72;;;2.80;;
27127;SDS011;14660;49.008;8.390;2022-11-03T03:41:42;5.20;;;2.70;;
27127;SDS011;14660;49.008;8.390;2022-11-03T03:44:11;5.20;;;2.72;;
27127;SDS011;14660;49.008;8.390;2022-11-03T03:46:48;6.05;;;3.13;;
27127;SDS011;14660;49.008;8.390;2022-11-03T03:49:32;5.55;;;2.78;;
27127;SDS011;14660;49.008;8.390;2022-11-03T03:52:00;3.63;;;2.10;;
27127;SDS011;14660;49.008;8.390;2022-11-03T03:54:29;3.95;;;2.38;;
27127;SDS011;14660;49.008;8.390;2022-11-03T03:59:26;5.68;;;2.50;;
27127;SDS011;14660;49.008;8.390;2022-11-03T04:01:53;5.60;;;2.55;;
27127;SDS011;14660;49.008;8.390;2022-11-03T04:04:19;6.68;;;3.08;;
27127;SDS011;14660;49.008;8.390;2022-11-03T04:06:49;5.50;;;2.67;;
27127;SDS011;14660;49.008;8.390;2022-11-03T04:09:36;5.18;;;2.67;;
27127;SDS011;14660;49.008;8.390;2022-11-03T04:12:02;6.97;;;2.97;;
27127;SDS011;14660;49.008;8.390;2022-11-03T04:14:49;4.40;;;2.42;;
27127;SDS011;14660;49.008;8.390;2022-11-03T04:17:37;7.20;;;2.97;;
27127;SDS011;14660;49.008;8.390;2022-11-03T04:20:28;5.70;;;2.58;;
27127;SDS011;14660;49.008;8.390;2022-11-03T04:23:13;5.03;;;2.45;;
27127;SDS011;14660;49.008;8.390;2022-11-03T04:25:40;4.45;;;2.55;;
27127;SDS011;14660;49.008;8.390;2022-11-03T04:28:13;7.75;;;3.38;;
27127;SDS011;14660;49.008;8.390;2022-11-03T04:30:47;5.03;;;2.88;;
27127;SDS011;14660;49.008;8.390;2022-11-03T04:33:15;4.18;;;3.13;;
27127;SDS011;14660;49.008;8.390;2022-11-03T04:35:45;7.22;;;3.38;;
27127;SDS011;14660;49.008;8.390;2022-11-03T04:40:59;7.97;;;2.60;;
27127;SDS011;14660;49.008;8.390;2022-11-03T04:43:32;4.28;;;2.22;;
27127;SDS011;14660;49.008;8.390;2022-11-03T04:48:28;5.15;;;3.05;;
27127;SDS011;14660;49.008;8.390;2022-11-03T04:50:55;4.93;;;2.58;;
27127;SDS011;14660;49.008;8.390;2022-11-03T04:53:27;4.50;;;2.28;;
27127;SDS011;14660;49.008;8.390;2022-11-03T04:55:58;6.22;;;2.55;;
27127;SDS011;14660;49.008;8.390;2022-11-03T04:58:27;4.03;;;2.15;;
27127;SDS011;14660;49.008;8.390;2022-11-03T05:00:58;4.68;;;2.38;;
27127;SDS011;14660;49.008;8.390;2022-11-03T05:09:22;6.28;;;2.38;;
27127;SDS011;14660;49.008;8.390;2022-11-03T05:12:13;3.88;;;2.05;;
27127;SDS011;14660;49.008;8.390;2022-11-03T05:14:40;7.15;;;2.60;;
27127;SDS011;14660;49.008;8.390;2022-11-03T05:17:28;7.22;;;3.33;;
27127;SDS011;14660;49.008;8.390;2022-11-03T05:20:02;4.35;;;2.67;;
27127;SDS011;14660;49.008;8.390;2022-11-03T05:22:31;6.07;;;2.67;;
27127;SDS011;14660;49.008;8.390;2022-11-03T05:28:04;4.63;;;2.72;;
27127;SDS011;14660;49.008;8.390;2022-11-03T05:30:39;5.63;;;2.50;;
27127;SDS011;14660;49.008;8.390;2022-11-03T05:33:17;9.02;;;3.13;;
27127;SDS011;14660;49.008;8.390;2022-11-03T05:36:13;5.22;;;2.45;;
27127;SDS011;14660;49.008;8.390;2022-11-03T05:38:44;3.67;;;2.47;;
27127;SDS011;14660;49.008;8.390;2022-11-03T05:41:21;10.20;;;3.70;;
27127;SDS011;14660;49.008;8.390;2022-11-03T05:46:53;6.50;;;3.38;;
27127;SDS011;14660;49.008;8.390;2022-11-03T05:49:20;6.13;;;2.63;;
27127;SDS011;14660;49.008;8.390;2022-11-03T05:51:47;6.95;;;2.47;;
27127;SDS011;14660;49.008;8.390;2022-11-03T05:54:22;5.43;;;3.25;;
27127;SDS011;14660;49.008;8.390;2022-11-03T05:56:51;7.10;;;2.42;;
27127;SDS011;14660;49.008;8.390;2022-11-03T05:59:27;5.93;;;2.35;;
27127;SDS011;14660;49.008;8.390;2022-11-03T06:01:54;4.97;;;2.33;;
27127;SDS011;14660;49.008;8.390;2022-11-03T06:07:22;8.30;;;2.53;;
27127;SDS011;14660;49.008;8.390;2022-11-03T06:09:51;6.10;;;2.22;;
27127;SDS011;14660;49.008;8.390;2022-11-03T06:12:23;5.50;;;2.30;;
27127;SDS011;14660;49.008;8.390;2022-11-03T06:14:55;6.25;;;2.90;;
27127;SDS011;14660;49.008;8.390;2022-11-03T06:17:24;3.75;;;2.45;;
27127;SDS011;14660;49.008;8.390;2022-11-03T06:19:53;4.15;;;2.80;;
27127;SDS011;14660;49.008;8.390;2022-11-03T06:27:55;10.68;;;3.40;;
27127;SDS011;14660;49.008;8.390;2022-11-03T06:30:31;7.05;;;3.15;;
27127;SDS011;14660;49.008;8.390;2022-11-03T06:33:23;12.02;;;4.35;;
27127;SDS011;14660;49.008;8.390;2022-11-03T06:35:52;4.95;;;3.72;;
27127;SDS011;14660;49.008;8.390;2022-11-03T06:38:24;6.07;;;3.33;;
27127;SDS011;14660;49.008;8.390;2022-11-03T06:40:55;8.05;;;4.38;;
27127;SDS011;14660;49.008;8.390;2022-11-03T06:43:41;7.90;;;3.83;;
27127;SDS011;14660;49.008;8.390;2022-11-03T06:46:30;10.27;;;4.05;;
27127;SDS011;14660;49.008;8.390;2022-11-03T06:48:59;6.75;;;3.67;;
27127;SDS011;14660;49.008;8.390;2022-11-03T06:51:30;6.90;;;3.83;;
27127;SDS011;14660;49.008;8.390;2022-11-03T06:54:01;8.02;;;4.43;;
27127;SDS011;14660;49.008;8.390;2022-11-03T06:56:34;8.07;;;3.95;;
27127;SDS011;14660;49.008;8.390;2022-11-03T06:59:06;7.57;;;3.67;;
27127;SDS011;14660;49.008;8.390;2022-11-03T07:01:41;6.82;;;3.70;;
27127;SDS011;14660;49.008;8.390;2022-11-03T07:06:58;5.13;;;3.40;;
27127;SDS011;14660;49.008;8.390;2022-11-03T07:09:28;9.95;;;4.28;;
27127;SDS011;14660;49.008;8.390;2022-11-03T07:11:57;9.00;;;4.43;;
27127;SDS011;14660;49.008;8.390;2022-11-03T07:14:28;8.25;;;3.60;;
27127;SDS011;14660;49.008;8.390;2022-11-03T07:17:02;6.65;;;3.63;;
27127;SDS011;14660;49.008;8.390;2022-11-03T07:19:40;7.07;;;3.58;;
27127;SDS011;14660;49.008;8.390;2022-11-03T07:22:17;9.65;;;4.00;;
27127;SDS011;14660;49.008;8.390;2022-11-03T07:24:54;6.65;;;3.22;;
27127;SDS011;14660;49.008;8.390;2022-11-03T07:27:37;6.38;;;4.07;;
27127;SDS011;14660;49.008;8.390;2022-11-03T07:33:09;13.05;;;5.00;;
27127;SDS011;14660;49.008;8.390;2022-11-03T07:35:43;7.53;;;4.38;;
27127;SDS011;14660;49.008;8.390;2022-11-03T07:38:18;10.85;;;4.50;;
27127;SDS011;14660;49.008;8.390;2022-11-03T07:40:47;7.28;;;3.95;;
27127;SDS011;14660;49.008;8.390;2022-11-03T07:46:02;8.07;;;3.38;;
27127;SDS011;14660;49.008;8.390;2022-11-03T07:48:42;5.65;;;3.10;;
27127;SDS011;14660;49.008;8.390;2022-11-03T07:54:16;8.02;;;3.28;;
27127;SDS011;14660;49.008;8.390;2022-11-03T07:59:45;5.95;;;3.38;;
27127;SDS011;14660;49.008;8.390;2022-11-03T08:02:23;6.82;;;3.30;;
27127;SDS011;14660;49.008;8.390;2022-11-03T08:04:54;13.80;;;4.03;;
27127;SDS011;14660;49.008;8.390;2022-11-03T08:07:21;8.20;;;4.10;;
27127;SDS011;14660;49.008;8.390;2022-11-03T08:09:48;7.38;;;3.83;;
27127;SDS011;14660;49.008;8.390;2022-11-03T08:12:16;9.50;;;3.78;;
27127;SDS011;14660;49.008;8.390;2022-11-03T08:14:43;9.68;;;3.45;;
27127;SDS011;14660;49.008;8.390;2022-11-03T08:17:11;7.40;;;4.00;;
27127;SDS011;14660;49.008;8.390;2022-11-03T08:19:40;6.82;;;3.88;;
27127;SDS011;14660;49.008;8.390;2022-11-03T08:22:06;9.95;;;4.05;;
27127;SDS011;14660;49.008;8.390;2022-11-03T08:24:32;8.70;;;3.90;;
27127;SDS011;14660;49.008;8.390;2022-11-03T08:27:02;5.70;;;3.42;;
27127;SDS011;14660;49.008;8.390;2022-11-03T08:29:31;9.13;;;3.97;;
27127;SDS011;14660;49.008;8.390;2022-11-03T08:31:57;8.05;;;4.18;;
27127;SDS011;14660;49.008;8.390;2022-11-03T08:34:24;6.63;;;3.47;;
27127;SDS011;14660;49.008;8.390;2022-11-03T08:36:51;8.85;;;4.22;;
27127;SDS011;14660;49.008;8.390;2022-11-03T08:39:26;11.07;;;4.25;;
27127;SDS011;14660;49.008;8.390;2022-11-03T08:41:53;10.75;;;4.45;;
27127;SDS011;14660;49.008;8.390;2022-11-03T08:44:20;9.48;;;4.07;;
27127;SDS011;14660;49.008;8.390;2022-11-03T08:46:48;8.65;;;4.88;;
27127;SDS011;14660;49.008;8.390;2022-11-03T08:49:16;8.48;;;4.28;;
27127;SDS011;14660;49.008;8.390;2022-11-03T08:51:44;11.65;;;4.70;;
27127;SDS011;14660;49.008;8.390;2022-11-03T08:54:12;12.48;;;5.45;;
27127;SDS011;14660;49.008;8.390;2022-11-03T08:56:39;9.35;;;4.85;;
27127;SDS011;14660;49.008;8.390;2022-11-03T08:59:04;10.73;;;4.60;;
27127;SDS011;14660;49.008;8.390;2022-11-03T09:01:32;9.38;;;4.45;;
27127;SDS011;14660;49.008;8.390;2022-11-03T09:04:00;6.82;;;4.60;;
27127;SDS011;14660;49.008;8.390;2022-11-03T09:06:26;6.53;;;4.05;;
27127;SDS011;14660;49.008;8.390;2022-11-03T09:08:53;9.90;;;4.82;;
27127;SDS011;14660;49.008;8.390;2022-11-03T09:11:20;12.93;;;5.88;;
27127;SDS011;14660;49.008;8.390;2022-11-03T09:13:49;10.35;;;5.28;;
27127;SDS011;14660;49.008;8.390;2022-11-03T09:16:15;11.32;;;6.65;;
27127;SDS011;14660;49.008;8.390;2022-11-03T09:18:44;10.15;;;4.93;;
27127;SDS011;14660;49.008;8.390;2022-11-03T09:21:11;10.23;;;5.18;;
27127;SDS011;14660;49.008;8.390;2022-11-03T09:23:40;9.02;;;4.80;;
27127;SDS011;14660;49.008;8.390;2022-11-03T09:26:06;10.27;;;5.22;;
27127;SDS011;14660;49.008;8.390;2022-11-03T09:28:33;15.15;;;5.88;;
27127;SDS011;14660;49.008;8.390;2022-11-03T09:31:03;11.95;;;5.25;;
27127;SDS011;14660;49.008;8.390;2022-11-03T09:33:33;10.35;;;4.93;;
27127;SDS011;14660;49.008;8.390;2022-11-03T09:36:02;9.02;;;5.68;;
27127;SDS011;14660;49.008;8.390;2022-11-03T09:38:30;11.60;;;5.32;;
27127;SDS011;14660;49.008;8.390;2022-11-03T09:41:03;12.93;;;5.65;;
27127;SDS011;14660;49.008;8.390;2022-11-03T09:43:30;13.55;;;6.55;;
27127;SDS011;14660;49.008;8.390;2022-11-03T09:46:00;13.05;;;5.90;;
27127;SDS011;14660;49.008;8.390;2022-11-03T09:48:27;13.15;;;6.32;;
27127;SDS011;14660;49.008;8.390;2022-11-03T09:50:55;8.95;;;5.00;;
27127;SDS011;14660;49.008;8.390;2022-11-03T09:53:24;12.30;;;5.18;;
27127;SDS011;14660;49.008;8.390;2022-11-03T09:55:51;11.73;;;5.55;;
27127;SDS011;14660;49.008;8.390;2022-11-03T09:58:17;9.27;;;5.25;;
27127;SDS011;14660;49.008;8.390;2022-11-03T10:00:46;11.10;;;5.68;;
27127;SDS011;14660;49.008;8.390;2022-11-03T10:03:12;10.02;;;5.53;;
27127;SDS011;14660;49.008;8.390;2022-11-03T10:05:45;13.15;;;5.35;;
27127;SDS011;14660;49.008;8.390;2022-11-03T10:11:05;9.77;;;6.07;;
27127;SDS011;14660;49.008;8.390;2022-11-03T10:14:08;13.68;;;6.82;;
27127;SDS011;14660;49.008;8.390;2022-11-03T10:18:54;9.73;;;5.38;;
27127;SDS011;14660;49.008;8.390;2022-11-03T10:21:26;10.30;;;5.65;;
27127;SDS011;14660;49.008;8.390;2022-11-03T10:23:59;13.48;;;6.18;;
27127;SDS011;14660;49.008;8.390;2022-11-03T10:26:26;8.95;;;5.88;;
27127;SDS011;14660;49.008;8.390;2022-11-03T10:29:06;11.52;;;5.63;;
27127;SDS011;14660;49.008;8.390;2022-11-03T10:31:45;13.43;;;6.57;;
27127;SDS011;14660;49.008;8.390;2022-11-03T10:37:25;12.07;;;5.95;;
27127;SDS011;14660;49.008;8.390;2022-11-03T10:39:51;10.00;;;6.40;;
27127;SDS011;14660;49.008;8.390;2022-11-03T10:45:09;24.40;;;10.55;;
27127;SDS011;14660;49.008;8.390;2022-11-03T10:47:35;16.60;;;9.80;;
27127;SDS011;14660;49.008;8.390;2022-11-03T10:50:36;12.80;;;6.45;;
27127;SDS011;14660;49.008;8.390;2022-11-03T10:52:56;12.82;;;6.43;;
27127;SDS011;14660;49.008;8.390;2022-11-03T10:55:24;11.05;;;5.88;;
27127;SDS011;14660;49.008;8.390;2022-11-03T10:57:54;12.98;;;6.10;;
27127;SDS011;14660;49.008;8.390;2022-11-03T11:00:24;16.30;;;6.63;;
27127;SDS011;14660;49.008;8.390;2022-11-03T11:02:51;13.23;;;6.32;;
27127;SDS011;14660;49.008;8.390;2022-11-03T11:05:23;9.40;;;5.07;;
27127;SDS011;14660;49.008;8.390;2022-11-03T11:07:52;12.82;;;5.05;;
27127;SDS011;14660;49.008;8.390;2022-11-03T11:16:01;10.55;;;4.75;;
27127;SDS011;14660;49.008;8.390;2022-11-03T11:25:01;6.55;;;3.67;;
27127;SDS011;14660;49.008;8.390;2022-11-03T11:33:22;9.80;;;4.30;;
27127;SDS011;14660;49.008;8.390;2022-11-03T11:50:23;10.00;;;4.05;;
27127;SDS011;14660;49.008;8.390;2022-11-03T12:01:33;12.48;;;4.38;;
27127;SDS011;14660;49.008;8.390;2022-11-03T12:07:09;19.05;;;6.03;;
27127;SDS011;14660;49.008;8.390;2022-11-03T12:09:38;7.82;;;4.35;;
27127;SDS011;14660;49.008;8.390;2022-11-03T12:12:07;13.43;;;5.22;;
27127;SDS011;14660;49.008;8.390;2022-11-03T12:14:36;14.82;;;5.20;;
27127;SDS011;14660;49.008;8.390;2022-11-03T12:19:51;15.90;;;5.50;;
27127;SDS011;14660;49.008;8.390;2022-11-03T12:25:34;8.13;;;4.70;;
27127;SDS011;14660;49.008;8.390;2022-11-03T12:28:05;12.02;;;5.55;;
27127;SDS011;14660;49.008;8.390;2022-11-03T12:30:33;11.45;;;4.50;;
27127;SDS011;14660;49.008;8.390;2022-11-03T12:32:59;10.00;;;3.90;;
27127;SDS011;14660;49.008;8.390;2022-11-03T12:35:24;11.57;;;4.57;;
27127;SDS011;14660;49.008;8.390;2022-11-03T12:37:51;10.55;;;4.40;;
27127;SDS011;14660;49.008;8.390;2022-11-03T12:40:19;7.90;;;4.50;;
27127;SDS011;14660;49.008;8.390;2022-11-03T12:42:48;7.57;;;3.97;;
27127;SDS011;14660;49.008;8.390;2022-11-03T12:45:14;9.60;;;4.25;;
27127;SDS011;14660;49.008;8.390;2022-11-03T12:47:44;8.07;;;3.38;;
27127;SDS011;14660;49.008;8.390;2022-11-03T12:50:10;11.30;;;4.32;;
27127;SDS011;14660;49.008;8.390;2022-11-03T12:52:39;6.03;;;3.50;;
27127;SDS011;14660;49.008;8.390;2022-11-03T12:55:06;11.98;;;4.10;;
27127;SDS011;14660;49.008;8.390;2022-11-03T12:57:33;8.80;;;4.43;;
27127;SDS011;14660;49.008;8.390;2022-11-03T13:00:00;15.85;;;5.72;;
27127;SDS011;14660;49.008;8.390;2022-11-03T13:02:27;11.73;;;5.55;;
27127;SDS011;14660;49.008;8.390;2022-11-03T13:04:56;13.80;;;4.65;;
27127;SDS011;14660;49.008;8.390;2022-11-03T13:07:23;10.80;;;4.57;;
27127;SDS011;14660;49.008;8.390;2022-11-03T13:09:50;7.47;;;3.95;;
27127;SDS011;14660;49.008;8.390;2022-11-03T13:12:17;12.57;;;4.68;;
27127;SDS011;14660;49.008;8.390;2022-11-03T13:15:02;11.70;;;5.18;;
27127;SDS011;14660;49.008;8.390;2022-11-03T13:17:31;10.82;;;5.95;;
27127;SDS011;14660;49.008;8.390;2022-11-03T13:19:59;9.73;;;4.50;;
27127;SDS011;14660;49.008;8.390;2022-11-03T13:22:26;12.43;;;3.90;;
27127;SDS011;14660;49.008;8.390;2022-11-03T13:24:54;6.47;;;3.58;;
27127;SDS011;14660;49.008;8.390;2022-11-03T13:27:20;6.22;;;3.42;;
27127;SDS011;14660;49.008;8.390;2022-11-03T13:29:47;4.60;;;2.95;;
27127;SDS011;14660;49.008;8.390;2022-11-03T13:32:15;6.68;;;4.20;;
27127;SDS011;14660;49.008;8.390;2022-11-03T13:34:42;7.03;;;2.92;;
27127;SDS011;14660;49.008;8.390;2022-11-03T13:37:09;13.55;;;3.67;;
27127;SDS011;14660;49.008;8.390;2022-11-03T13:39:34;8.18;;;3.25;;
27127;SDS011;14660;49.008;8.390;2022-11-03T13:42:02;10.30;;;4.97;;
27127;SDS011;14660;49.008;8.390;2022-11-03T13:44:29;8.02;;;3.53;;
27127;SDS011;14660;49.008;8.390;2022-11-03T13:46:56;10.35;;;4.88;;
27127;SDS011;14660;49.008;8.390;2022-11-03T13:49:23;15.05;;;6.13;;
27127;SDS011;14660;49.008;8.390;2022-11-03T13:51:50;10.18;;;4.90;;
27127;SDS011;14660;49.008;8.390;2022-11-03T13:54:17;9.40;;;4.47;;
27127;SDS011;14660;49.008;8.390;2022-11-03T13:56:43;10.77;;;5.32;;
27127;SDS011;14660;49.008;8.390;2022-11-03T13:59:11;8.35;;;4.78;;
27127;SDS011;14660;49.008;8.390;2022-11-03T14:01:36;18.02;;;4.22;;
27127;SDS011;14660;49.008;8.390;2022-11-03T14:04:05;12.35;;;4.80;;
27127;SDS011;14660;49.008;8.390;2022-11-03T14:06:32;10.93;;;5.10;;
27127;SDS011;14660;49.008;8.390;2022-11-03T14:09:00;10.38;;;5.60;;
27127;SDS011;14660;49.008;8.390;2022-11-03T14:11:28;6.63;;;4.55;;
27127;SDS011;14660;49.008;8.390;2022-11-03T14:14:14;7.28;;;3.97;;
27127;SDS011;14660;49.008;8.390;2022-11-03T14:16:42;6.72;;;3.33;;
27127;SDS011;14660;49.008;8.390;2022-11-03T14:19:09;5.90;;;3.20;;
27127;SDS011;14660;49.008;8.390;2022-11-03T14:21:37;12.18;;;3.85;;
27127;SDS011;14660;49.008;8.390;2022-11-03T14:24:09;10.40;;;4.03;;
27127;SDS011;14660;49.008;8.390;2022-11-03T14:26:35;9.23;;;4.15;;
27127;SDS011;14660;49.008;8.390;2022-11-03T14:29:01;9.57;;;3.53;;
27127;SDS011;14660;49.008;8.390;2022-11-03T14:31:35;7.47;;;3.65;;
27127;SDS011;14660;49.008;8.390;2022-11-03T14:36:29;7.63;;;3.97;;
27127;SDS011;14660;49.008;8.390;2022-11-03T14:38:56;8.02;;;3.97;;
27127;SDS011;14660;49.008;8.390;2022-11-03T14:41:25;5.88;;;4.07;;
27127;SDS011;14660;49.008;8.390;2022-11-03T14:44:10;5.95;;;2.63;;
27127;SDS011;14660;49.008;8.390;2022-11-03T14:46:37;9.48;;;3.58;;
27127;SDS011;14660;49.008;8.390;2022-11-03T14:49:04;9.85;;;3.25;;
27127;SDS011;14660;49.008;8.390;2022-11-03T14:51:31;5.57;;;3.72;;
27127;SDS011;14660;49.008;8.390;2022-11-03T14:53:59;8.63;;;3.42;;
27127;SDS011;14660;49.008;8.390;2022-11-03T14:56:26;10.20;;;3.40;;
27127;SDS011;14660;49.008;8.390;2022-11-03T14:58:53;8.18;;;4.05;;
27127;SDS011;14660;49.008;8.390;2022-11-03T15:01:21;10.35;;;3.38;;
27127;SDS011;14660;49.008;8.390;2022-11-03T15:03:46;8.85;;;3.85;;
27127;SDS011;14660;49.008;8.390;2022-11-03T15:06:15;14.27;;;4.35;;
27127;SDS011;14660;49.008;8.390;2022-11-03T15:08:43;7.72;;;3.88;;
27127;SDS011;14660;49.008;8.390;2022-11-03T15:11:11;10.60;;;3.90;;
27127;SDS011;14660;49.008;8.390;2022-11-03T15:13:39;12.60;;;4.20;;
27127;SDS011;14660;49.008;8.390;2022-11-03T15:16:06;11.45;;;4.53;;
27127;SDS011;14660;49.008;8.390;2022-11-03T15:18:35;7.78;;;4.07;;
27127;SDS011;14660;49.008;8.390;2022-11-03T15:21:00;6.75;;;3.05;;
27127;SDS011;14660;49.008;8.390;2022-11-03T15:23:29;7.93;;;3.30;;
27127;SDS011;14660;49.008;8.390;2022-11-03T15:25:57;7.30;;;3.80;;
27127;SDS011;14660;49.008;8.390;2022-11-03T15:28:26;8.68;;;4.18;;
27127;SDS011;14660;49.008;8.390;2022-11-03T15:30:54;8.20;;;3.70;;
27127;SDS011;14660;49.008;8.390;2022-11-03T15:33:31;8.55;;;4.03;;
27127;SDS011;14660;49.008;8.390;2022-11-03T15:36:07;7.63;;;4.25;;
27127;SDS011;14660;49.008;8.390;2022-11-03T15:38:35;8.60;;;4.53;;
27127;SDS011;14660;49.008;8.390;2022-11-03T15:41:03;7.72;;;4.07;;
27127;SDS011;14660;49.008;8.390;2022-11-03T15:43:44;8.10;;;3.95;;
27127;SDS011;14660;49.008;8.390;2022-11-03T15:46:12;7.28;;;4.00;;
27127;SDS011;14660;49.008;8.390;2022-11-03T15:48:38;8.45;;;3.92;;
27127;SDS011;14660;49.008;8.390;2022-11-03T15:51:05;9.70;;;5.10;;
27127;SDS011;14660;49.008;8.390;2022-11-03T15:53:31;9.32;;;5.72;;
27127;SDS011;14660;49.008;8.390;2022-11-03T15:55:58;15.70;;;5.50;;
27127;SDS011;14660;49.008;8.390;2022-11-03T15:58:26;8.93;;;4.15;;
27127;SDS011;14660;49.008;8.390;2022-11-03T16:00:58;10.65;;;5.95;;
27127;SDS011;14660;49.008;8.390;2022-11-03T16:03:29;10.82;;;4.88;;
27127;SDS011;14660;49.008;8.390;2022-11-03T16:05:57;7.43;;;4.72;;
27127;SDS011;14660;49.008;8.390;2022-11-03T16:08:27;8.40;;;4.25;;
27127;SDS011;14660;49.008;8.390;2022-11-03T16:10:54;10.70;;;4.47;;
27127;SDS011;14660;49.008;8.390;2022-11-03T16:13:21;9.20;;;4.53;;
27127;SDS011;14660;49.008;8.390;2022-11-03T16:15:49;9.10;;;4.68;;
27127;SDS011;14660;49.008;8.390;2022-11-03T16:18:18;10.73;;;4.50;;
27127;SDS011;14660;49.008;8.390;2022-11-03T16:20:46;11.27;;;4.97;;
27127;SDS011;14660;49.008;8.390;2022-11-03T16:23:13;10.05;;;5.45;;
27127;SDS011;14660;49.008;8.390;2022-11-03T16:25:43;8.48;;;5.10;;
27127;SDS011;14660;49.008;8.390;2022-11-03T16:28:11;8.98;;;4.85;;
27127;SDS011;14660;49.008;8.390;2022-11-03T16:30:37;12.40;;;5.97;;
27127;SDS011;14660;49.008;8.390;2022-11-03T16:33:05;12.48;;;6.47;;
27127;SDS011;14660;49.008;8.390;2022-11-03T16:35:32;11.77;;;5.82;;
27127;SDS011;14660;49.008;8.390;2022-11-03T16:37:59;8.27;;;4.78;;
27127;SDS011;14660;49.008;8.390;2022-11-03T16:40:27;11.02;;;5.45;;
27127;SDS011;14660;49.008;8.390;2022-11-03T16:42:57;9.85;;;4.80;;
27127;SDS011;14660;49.008;8.390;2022-11-03T16:45:23;10.35;;;4.95;;
27127;SDS011;14660;49.008;8.390;2022-11-03T16:47:53;12.70;;;5.25;;
27127;SDS011;14660;49.008;8.390;2022-11-03T16:50:22;10.68;;;5.10;;
27127;SDS011;14660;49.008;8.390;2022-11-03T16:52:49;8.07;;;4.80;;
27127;SDS011;14660;49.008;8.390;2022-11-03T16:55:17;13.32;;;6.53;;
27127;SDS011;14660;49.008;8.390;2022-11-03T16:57:44;9.48;;;5.90;;
27127;SDS011;14660;49.008;8.390;2022-11-03T17:00:13;10.95;;;7.25;;
27127;SDS011;14660;49.008;8.390;2022-11-03T17:02:42;9.77;;;6.82;;
27127;SDS011;14660;49.008;8.390;2022-11-03T17:05:09;12.77;;;5.70;;
27127;SDS011;14660;49.008;8.390;2022-11-03T17:07:38;11.85;;;7.20;;
27127;SDS011;14660;49.008;8.390;2022-11-03T17:10:05;11.90;;;6.07;;
27127;SDS011;14660;49.008;8.390;2022-11-03T17:12:34;13.23;;;6.00;;
27127;SDS011;14660;49.008;8.390;2022-11-03T17:15:02;9.15;;;5.22;;
27127;SDS011;14660;49.008;8.390;2022-11-03T17:17:32;9.82;;;6.30;;
27127;SDS011;14660;49.008;8.390;2022-11-03T17:20:00;11.43;;;6.68;;
27127;SDS011;14660;49.008;8.390;2022-11-03T17:22:29;13.77;;;6.53;;
27127;SDS011;14660;49.008;8.390;2022-11-03T17:24:56;11.50;;;6.45;;